createdAt,value
2016-08-03T00:00:52.881Z,18.04
2016-08-03T00:01:52.906Z,18.04
2016-08-03T00:02:52.915Z,18.03
2016-08-03T00:03:52.945Z,17.97
2016-08-03T00:04:52.955Z,18.04
2016-08-03T00:05:52.983Z,18.05
2016-08-03T00:06:53.001Z,18.03
2016-08-03T00:07:53.018Z,18.03
2016-08-03T00:08:53.040Z,18
2016-08-03T00:09:53.065Z,18.05
2016-08-03T00:10:53.075Z,18.01
2016-08-03T00:11:53.097Z,18.05
2016-08-03T00:12:53.109Z,18.04
2016-08-03T00:13:53.137Z,17.98
2016-08-03T00:14:53.152Z,17.95
2016-08-03T00:15:53.184Z,17.89
2016-08-03T00:16:53.192Z,17.95
2016-08-03T00:17:53.217Z,17.97
2016-08-03T00:18:53.242Z,17.97
2016-08-03T00:20:53.272Z,17.97
2016-08-03T00:21:53.311Z,17.89
2016-08-03T00:22:53.312Z,17.95
2016-08-03T00:23:53.338Z,17.94
2016-08-03T00:24:53.348Z,17.94
2016-08-03T00:25:54.077Z,17.92
2016-08-03T00:26:53.384Z,17.87
2016-08-03T00:27:53.410Z,17.9
2016-08-03T00:28:53.427Z,17.89
2016-08-03T00:29:53.452Z,17.8
2016-08-03T00:30:53.460Z,17.9
2016-08-03T00:31:53.490Z,17.89
2016-08-03T00:32:53.506Z,17.85
2016-08-03T00:33:53.520Z,17.79
2016-08-03T00:34:53.537Z,17.8
2016-08-03T00:35:53.574Z,17.8
2016-08-03T00:36:53.583Z,17.82
2016-08-03T00:37:54.322Z,17.74
2016-08-03T00:38:53.628Z,17.83
2016-08-03T00:39:53.649Z,17.82
2016-08-03T00:40:53.659Z,17.85
2016-08-03T00:41:53.686Z,17.83
2016-08-03T00:42:53.693Z,17.83
2016-08-03T00:43:53.721Z,17.82
2016-08-03T00:44:53.740Z,17.8
2016-08-03T00:45:53.762Z,17.85
2016-08-03T00:46:54.517Z,17.97
2016-08-03T00:47:53.799Z,17.92
2016-08-03T00:48:53.803Z,17.97
2016-08-03T00:49:54.570Z,17.89
2016-08-03T00:50:53.851Z,17.89
2016-08-03T00:51:53.887Z,17.85
2016-08-03T00:52:53.885Z,17.87
2016-08-03T00:53:53.908Z,17.94
2016-08-03T00:54:53.932Z,17.9
2016-08-03T00:55:53.971Z,17.89
2016-08-03T00:56:53.975Z,17.94
2016-08-03T00:57:53.996Z,17.9
2016-08-03T00:58:54.006Z,17.95
2016-08-03T00:59:54.027Z,17.98
2016-08-03T01:00:54.051Z,17.98
2016-08-03T01:01:54.073Z,17.98
2016-08-03T01:02:54.090Z,17.98
2016-08-03T01:03:54.129Z,17.95
2016-08-03T01:04:54.121Z,18.01
2016-08-03T01:05:54.147Z,17.94
2016-08-03T01:06:54.165Z,18.04
2016-08-03T01:07:54.200Z,18.03
2016-08-03T01:08:54.201Z,18.03
2016-08-03T01:09:54.225Z,18.05
2016-08-03T01:10:54.242Z,17.98
2016-08-03T01:11:54.273Z,18.01
2016-08-03T01:12:54.287Z,18.05
2016-08-03T01:14:54.319Z,18.07
2016-08-03T01:15:54.349Z,18.07
2016-08-03T01:16:54.367Z,18.08
2016-08-03T01:17:54.393Z,18.01
2016-08-03T01:18:54.396Z,18.04
2016-08-03T01:19:54.425Z,18.1
2016-08-03T01:20:54.439Z,18.11
2016-08-03T01:21:54.461Z,18.08
2016-08-03T01:22:54.496Z,18.13
2016-08-03T01:23:54.501Z,18.15
2016-08-03T01:24:54.529Z,18.13
2016-08-03T01:25:54.540Z,18.19
2016-08-03T01:26:54.550Z,18.15
2016-08-03T01:27:55.300Z,18.08
2016-08-03T01:29:54.611Z,18.05
2016-08-03T01:30:54.627Z,18.13
2016-08-03T01:31:54.667Z,18.11
2016-08-03T01:32:54.670Z,18.15
2016-08-03T01:33:54.697Z,18.07
2016-08-03T01:34:54.708Z,18.11
2016-08-03T01:35:54.727Z,18.13
2016-08-03T01:36:54.746Z,18.15
2016-08-03T01:37:54.778Z,18.05
2016-08-03T01:38:54.790Z,18.11
2016-08-03T01:39:54.826Z,18.03
2016-08-03T01:40:54.828Z,18.08
2016-08-03T01:41:54.851Z,18.16
2016-08-03T01:42:54.870Z,18.04
2016-08-03T01:43:54.890Z,18.05
2016-08-03T01:44:54.908Z,18.11
2016-08-03T01:45:54.923Z,18.1
2016-08-03T01:46:54.940Z,18.13
2016-08-03T01:47:54.974Z,18.1
2016-08-03T01:48:54.984Z,18.07
2016-08-03T01:49:55.726Z,18
2016-08-03T01:50:55.021Z,18.03
2016-08-03T01:51:55.042Z,17.98
2016-08-03T01:52:55.057Z,18
2016-08-03T01:53:55.801Z,17.95
2016-08-03T01:54:55.104Z,17.98
2016-08-03T01:55:55.119Z,17.94
2016-08-03T01:56:55.144Z,17.97
2016-08-03T01:57:55.155Z,17.92
2016-08-03T01:58:55.176Z,17.97
2016-08-03T01:59:55.198Z,17.98
2016-08-03T02:00:55.214Z,17.98
2016-08-03T02:01:55.239Z,17.98
2016-08-03T02:02:55.269Z,17.95
2016-08-03T02:03:55.281Z,17.98
2016-08-03T02:04:55.293Z,17.95
2016-08-03T02:05:55.316Z,17.95
2016-08-03T02:06:55.332Z,18.01
2016-08-03T02:07:55.359Z,18
2016-08-03T02:08:55.368Z,18.05
2016-08-03T02:09:55.405Z,18.04
2016-08-03T02:10:55.418Z,18.01
2016-08-03T02:11:55.443Z,18.07
2016-08-03T02:12:55.452Z,18.05
2016-08-03T02:13:55.479Z,18.04
2016-08-03T02:14:55.486Z,18.01
2016-08-03T02:15:55.506Z,18.07
2016-08-03T02:16:55.528Z,18.04
2016-08-03T02:17:55.551Z,18.03
2016-08-03T02:18:55.564Z,18.05
2016-08-03T02:19:55.600Z,18.08
2016-08-03T02:20:55.603Z,18.08
2016-08-03T02:21:55.629Z,18.04
2016-08-03T02:22:55.643Z,18.13
2016-08-03T02:23:55.671Z,18.1
2016-08-03T02:24:55.686Z,18.11
2016-08-03T02:25:55.717Z,18.11
2016-08-03T02:26:55.725Z,18.19
2016-08-03T02:27:55.756Z,18.11
2016-08-03T02:28:55.755Z,18.16
2016-08-03T02:29:55.785Z,18.1
2016-08-03T02:30:55.800Z,18.2
2016-08-03T02:31:55.836Z,18.2
2016-08-03T02:32:55.846Z,18.15
2016-08-03T02:33:55.863Z,18.18
2016-08-03T02:34:55.883Z,18.11
2016-08-03T02:35:55.911Z,18.2
2016-08-03T02:36:56.644Z,18.19
2016-08-03T02:37:56.658Z,18.07
2016-08-03T02:38:55.958Z,18.2
2016-08-03T02:39:55.976Z,18.15
2016-08-03T02:40:55.992Z,18.15
2016-08-03T02:41:56.016Z,18.18
2016-08-03T02:42:56.035Z,18.26
2016-08-03T02:43:56.059Z,18.25
2016-08-03T02:44:56.075Z,18.23
2016-08-03T02:45:56.092Z,18.16
2016-08-03T02:46:56.111Z,18.18
2016-08-03T02:47:56.137Z,18.19
2016-08-03T02:48:56.149Z,18.23
2016-08-03T02:49:56.185Z,18.2
2016-08-03T02:50:56.190Z,18.23
2016-08-03T02:51:56.202Z,18.2
2016-08-03T02:52:56.235Z,18.22
2016-08-03T02:53:56.255Z,18.19
2016-08-03T02:54:56.267Z,18.18
2016-08-03T02:55:56.294Z,18.19
2016-08-03T02:56:56.310Z,18.16
2016-08-03T02:57:56.342Z,18.19
2016-08-03T02:58:56.357Z,18.18
2016-08-03T02:59:56.365Z,18.2
2016-08-03T03:00:56.387Z,18.18
2016-08-03T03:01:56.416Z,18.19
2016-08-03T03:02:56.424Z,18.19
2016-08-03T03:03:56.447Z,18.22
2016-08-03T03:04:56.468Z,18.22
2016-08-03T03:05:56.488Z,18.22
2016-08-03T03:06:56.502Z,18.22
2016-08-03T03:07:56.535Z,18.2
2016-08-03T03:08:56.543Z,18.18
2016-08-03T03:09:56.577Z,18.23
2016-08-03T03:10:56.582Z,18.26
2016-08-03T03:11:56.607Z,18.28
2016-08-03T03:12:56.623Z,18.33
2016-08-03T03:13:56.647Z,18.26
2016-08-03T03:14:56.666Z,18.33
2016-08-03T03:15:56.687Z,18.31
2016-08-03T03:16:56.701Z,18.26
2016-08-03T03:17:56.715Z,18.22
2016-08-03T03:18:56.747Z,18.35
2016-08-03T03:19:56.778Z,18.23
2016-08-03T03:20:56.790Z,18.23
2016-08-03T03:21:56.796Z,18.19
2016-08-03T03:22:56.822Z,18.34
2016-08-03T03:23:56.848Z,18.29
2016-08-03T03:24:56.853Z,18.22
2016-08-03T03:25:56.883Z,18.19
2016-08-03T03:26:56.893Z,18.22
2016-08-03T03:27:56.924Z,18.26
2016-08-03T03:28:56.936Z,18.31
2016-08-03T03:29:56.963Z,18.33
2016-08-03T03:30:56.974Z,18.26
2016-08-03T03:31:57.002Z,18.23
2016-08-03T03:32:57.025Z,18.22
2016-08-03T03:33:57.044Z,18.26
2016-08-03T03:34:57.055Z,18.18
2016-08-03T03:35:57.078Z,18.23
2016-08-03T03:36:57.088Z,18.26
2016-08-03T03:37:57.118Z,18.29
2016-08-03T03:38:57.137Z,18.23
2016-08-03T03:39:57.159Z,18.26
2016-08-03T03:40:57.166Z,18.25
2016-08-03T03:41:57.200Z,18.28
2016-08-03T03:42:57.220Z,18.31
2016-08-03T03:43:57.246Z,18.22
2016-08-03T03:44:57.251Z,18.23
2016-08-03T03:45:57.279Z,18.33
2016-08-03T03:46:57.287Z,18.2
2016-08-03T03:47:57.320Z,18.26
2016-08-03T03:48:57.330Z,18.34
2016-08-03T03:49:57.369Z,18.34
2016-08-03T03:50:57.364Z,18.2
2016-08-03T03:51:57.397Z,18.34
2016-08-03T03:52:57.410Z,18.28
2016-08-03T03:53:57.446Z,18.33
2016-08-03T03:54:57.449Z,18.26
2016-08-03T03:55:57.475Z,18.31
2016-08-03T03:56:57.496Z,18.34
2016-08-03T03:57:57.522Z,18.43
2016-08-03T03:58:57.522Z,18.38
2016-08-03T03:59:57.546Z,18.43
2016-08-03T04:00:57.565Z,18.28
2016-08-03T04:01:57.589Z,18.43
2016-08-03T04:02:57.606Z,18.35
2016-08-03T04:03:57.637Z,18.25
2016-08-03T04:04:57.647Z,18.43
2016-08-03T04:05:57.675Z,18.43
2016-08-03T04:06:57.679Z,18.44
2016-08-03T04:07:57.723Z,18.33
2016-08-03T04:08:57.728Z,18.4
2016-08-03T04:09:57.746Z,18.28
2016-08-03T04:10:57.758Z,18.22
2016-08-03T04:11:57.789Z,18.43
2016-08-03T04:12:57.801Z,18.26
2016-08-03T04:13:57.822Z,18.33
2016-08-03T04:14:57.844Z,18.35
2016-08-03T04:15:57.868Z,18.38
2016-08-03T04:16:57.878Z,18.34
2016-08-03T04:17:57.914Z,18.4
2016-08-03T04:18:57.920Z,18.38
2016-08-03T04:19:57.943Z,18.43
2016-08-03T04:20:57.967Z,18.49
2016-08-03T04:21:57.983Z,18.53
2016-08-03T04:22:58.001Z,18.45
2016-08-03T04:23:58.012Z,18.47
2016-08-03T04:24:58.035Z,18.47
2016-08-03T04:25:58.075Z,18.45
2016-08-03T04:26:58.078Z,18.43
2016-08-03T04:27:58.102Z,18.44
2016-08-03T04:28:58.117Z,18.53
2016-08-03T04:29:58.153Z,18.43
2016-08-03T04:30:58.156Z,18.5
2016-08-03T04:31:58.190Z,18.49
2016-08-03T04:32:58.191Z,18.44
2016-08-03T04:33:58.220Z,18.5
2016-08-03T04:34:58.238Z,18.53
2016-08-03T04:35:58.266Z,18.52
2016-08-03T04:36:58.277Z,18.49
2016-08-03T04:37:58.306Z,18.5
2016-08-03T04:38:58.317Z,18.52
2016-08-03T04:39:58.338Z,18.52
2016-08-03T04:40:58.354Z,18.52
2016-08-03T04:41:58.387Z,18.53
2016-08-03T04:42:58.390Z,18.58
2016-08-03T04:43:58.417Z,18.59
2016-08-03T04:44:58.427Z,18.65
2016-08-03T04:45:58.463Z,18.58
2016-08-03T04:46:58.470Z,18.59
2016-08-03T04:47:58.492Z,18.58
2016-08-03T04:48:58.525Z,18.56
2016-08-03T04:49:58.535Z,18.55
2016-08-03T04:50:58.547Z,18.47
2016-08-03T04:51:58.593Z,18.59
2016-08-03T04:52:58.596Z,18.52
2016-08-03T04:53:58.615Z,18.6
2016-08-03T04:54:58.634Z,18.53
2016-08-03T04:55:58.654Z,18.59
2016-08-03T04:56:58.669Z,18.58
2016-08-03T04:57:58.697Z,18.56
2016-08-03T04:58:58.705Z,18.53
2016-08-03T04:59:58.766Z,18.52
2016-08-03T05:00:58.750Z,18.56
2016-08-03T05:01:58.772Z,18.56
2016-08-03T05:02:58.799Z,18.56
2016-08-03T05:03:58.815Z,18.52
2016-08-03T05:04:58.827Z,18.49
2016-08-03T05:05:58.865Z,18.49
2016-08-03T05:06:58.883Z,18.56
2016-08-03T05:07:58.899Z,18.5
2016-08-03T05:08:58.907Z,18.47
2016-08-03T05:09:58.950Z,18.5
2016-08-03T05:10:58.949Z,18.52
2016-08-03T05:11:58.973Z,18.59
2016-08-03T05:12:58.993Z,18.62
2016-08-03T05:13:59.013Z,18.56
2016-08-03T05:14:59.097Z,18.56
2016-08-03T05:15:59.052Z,18.52
2016-08-03T05:16:59.060Z,18.59
2016-08-03T05:17:59.093Z,18.47
2016-08-03T05:18:59.105Z,18.55
2016-08-03T05:19:59.129Z,18.55
2016-08-03T05:20:59.143Z,18.44
2016-08-03T05:21:59.181Z,18.47
2016-08-03T05:22:59.190Z,18.44
2016-08-03T05:23:59.218Z,18.55
2016-08-03T05:24:59.218Z,18.41
2016-08-03T05:25:59.245Z,18.52
2016-08-03T05:26:59.262Z,18.41
2016-08-03T05:27:59.289Z,18.43
2016-08-03T05:28:59.299Z,18.44
2016-08-03T05:30:59.336Z,18.47
2016-08-03T05:31:59.366Z,18.5
2016-08-03T05:32:59.394Z,18.44
2016-08-03T05:33:59.398Z,18.43
2016-08-03T05:34:59.423Z,18.52
2016-08-03T05:35:59.441Z,18.44
2016-08-03T05:36:59.458Z,18.4
2016-08-03T05:38:00.174Z,18.4
2016-08-03T05:38:59.486Z,18.41
2016-08-03T05:39:59.522Z,18.47
2016-08-03T05:40:59.526Z,18.35
2016-08-03T05:41:59.551Z,18.38
2016-08-03T05:42:59.572Z,18.4
2016-08-03T05:43:59.595Z,18.4
2016-08-03T05:45:59.630Z,18.5
2016-08-03T05:46:59.650Z,18.47
2016-08-03T05:47:59.659Z,18.45
2016-08-03T05:48:59.687Z,18.45
2016-08-03T05:49:59.704Z,18.47
2016-08-03T05:50:59.725Z,18.45
2016-08-03T05:51:59.752Z,18.45
2016-08-03T05:52:59.767Z,18.49
2016-08-03T05:53:59.788Z,18.59
2016-08-03T05:54:59.804Z,18.59
2016-08-03T05:55:59.825Z,18.58
2016-08-03T05:56:59.856Z,18.65
2016-08-03T05:57:59.865Z,18.65
2016-08-03T05:58:59.884Z,18.68
2016-08-03T05:59:59.913Z,18.68
2016-08-03T06:00:59.918Z,18.73
2016-08-03T06:01:59.937Z,18.78
2016-08-03T06:02:59.966Z,18.78
2016-08-03T06:03:59.991Z,18.74
2016-08-03T06:04:59.996Z,18.7
2016-08-03T06:06:00.025Z,18.77
2016-08-03T06:07:00.037Z,18.8
2016-08-03T06:08:00.059Z,18.78
2016-08-03T06:09:00.085Z,18.81
2016-08-03T06:10:00.112Z,18.93
2016-08-03T06:11:00.124Z,18.92
2016-08-03T06:12:00.148Z,18.98
2016-08-03T06:13:00.166Z,19.08
2016-08-03T06:14:00.181Z,18.99
2016-08-03T06:15:00.205Z,19.04
2016-08-03T06:16:00.226Z,19.09
2016-08-03T06:17:00.231Z,19.09
2016-08-03T06:18:00.260Z,19.09
2016-08-03T06:19:00.281Z,18.99
2016-08-03T06:20:00.298Z,19.14
2016-08-03T06:21:00.318Z,19.15
2016-08-03T06:22:00.335Z,19.19
2016-08-03T06:23:00.362Z,19.22
2016-08-03T06:24:00.385Z,19.27
2016-08-03T06:25:00.402Z,19.3
2016-08-03T06:26:00.417Z,19.27
2016-08-03T06:27:00.437Z,19.3
2016-08-03T06:28:00.466Z,19.26
2016-08-03T06:29:00.479Z,19.37
2016-08-03T06:30:00.510Z,19.4
2016-08-03T06:31:00.512Z,19.44
2016-08-03T06:32:00.540Z,19.45
2016-08-03T06:33:00.569Z,19.48
2016-08-03T06:34:00.579Z,19.51
2016-08-03T06:35:00.600Z,19.39
2016-08-03T06:36:00.618Z,19.52
2016-08-03T06:37:00.641Z,19.55
2016-08-03T06:38:01.402Z,19.49
2016-08-03T06:39:00.693Z,19.49
2016-08-03T06:40:00.707Z,19.39
2016-08-03T06:41:00.723Z,19.47
2016-08-03T06:42:00.739Z,19.48
2016-08-03T06:43:00.757Z,19.49
2016-08-03T06:44:00.789Z,19.47
2016-08-03T06:45:00.802Z,19.51
2016-08-03T06:46:00.824Z,19.54
2016-08-03T06:47:00.854Z,19.47
2016-08-03T06:48:00.866Z,19.47
2016-08-03T06:49:00.880Z,19.56
2016-08-03T06:50:00.916Z,19.59
2016-08-03T06:51:15.774Z,19.52
2016-08-03T06:52:00.958Z,19.54
2016-08-03T06:53:00.967Z,19.55
2016-08-03T06:54:00.991Z,19.62
2016-08-03T06:55:01.001Z,19.54
2016-08-03T06:56:01.032Z,19.59
2016-08-03T06:57:01.055Z,19.66
2016-08-03T06:58:01.067Z,19.64
2016-08-03T06:59:01.086Z,19.76
2016-08-03T07:00:01.105Z,19.76
2016-08-03T07:01:01.123Z,19.74
2016-08-03T07:02:01.146Z,19.71
2016-08-03T07:03:01.165Z,19.69
2016-08-03T07:04:01.197Z,19.71
2016-08-03T07:05:01.210Z,19.79
2016-08-03T07:06:01.226Z,19.81
2016-08-03T07:07:01.237Z,19.77
2016-08-03T07:08:01.272Z,19.71
2016-08-03T07:09:01.292Z,19.69
2016-08-03T07:10:01.331Z,19.77
2016-08-03T07:11:01.334Z,19.82
2016-08-03T07:12:01.350Z,19.85
2016-08-03T07:13:01.375Z,19.96
2016-08-03T07:14:01.385Z,19.85
2016-08-03T07:15:01.410Z,19.95
2016-08-03T07:16:01.442Z,20
2016-08-03T07:17:01.460Z,19.94
2016-08-03T07:18:01.481Z,19.99
2016-08-03T07:19:01.493Z,20.03
2016-08-03T07:20:01.526Z,20
2016-08-03T07:21:01.536Z,19.99
2016-08-03T07:22:01.575Z,20.04
2016-08-03T07:23:01.580Z,20.02
2016-08-03T07:24:01.606Z,20.06
2016-08-03T07:25:01.615Z,20.02
2016-08-03T07:26:01.643Z,20.02
2016-08-03T07:27:01.672Z,19.96
2016-08-03T07:28:01.683Z,20.02
2016-08-03T07:29:01.701Z,20.16
2016-08-03T07:30:01.727Z,20.24
2016-08-03T07:31:01.742Z,20.26
2016-08-03T07:32:01.758Z,20.21
2016-08-03T07:33:01.782Z,20.25
2016-08-03T07:34:01.816Z,20.18
2016-08-03T07:35:01.821Z,20.16
2016-08-03T07:36:01.848Z,20.11
2016-08-03T07:37:01.858Z,20.18
2016-08-03T07:38:01.890Z,20.19
2016-08-03T07:39:01.909Z,20.21
2016-08-03T07:40:01.934Z,20.16
2016-08-03T07:41:01.950Z,20.16
2016-08-03T07:42:01.969Z,20.18
2016-08-03T07:43:01.988Z,20.13
2016-08-03T07:44:02.017Z,20.19
2016-08-03T07:45:02.033Z,20.19
2016-08-03T07:46:02.066Z,20.19
2016-08-03T07:47:02.070Z,20.21
2016-08-03T07:48:02.086Z,20.22
2016-08-03T07:49:02.119Z,20.22
2016-08-03T07:50:02.866Z,20.21
2016-08-03T07:51:02.146Z,20.21
2016-08-03T07:52:02.175Z,20.29
2016-08-03T07:53:02.192Z,20.32
2016-08-03T07:54:02.214Z,20.4
2016-08-03T07:55:02.230Z,20.39
2016-08-03T07:56:02.273Z,20.47
2016-08-03T07:57:02.281Z,20.51
2016-08-03T07:58:02.309Z,20.51
2016-08-03T07:59:02.311Z,20.4
2016-08-03T08:00:02.332Z,20.5
2016-08-03T08:01:02.368Z,20.51
2016-08-03T08:02:02.384Z,20.56
2016-08-03T08:03:02.400Z,20.55
2016-08-03T08:04:02.424Z,20.59
2016-08-03T08:05:02.444Z,20.52
2016-08-03T08:06:02.471Z,20.56
2016-08-03T08:07:02.487Z,20.55
2016-08-03T08:08:02.509Z,20.55
2016-08-03T08:09:02.526Z,20.55
2016-08-03T08:10:02.551Z,20.52
2016-08-03T08:11:02.563Z,20.52
2016-08-03T08:12:02.588Z,20.58
2016-08-03T08:13:02.602Z,20.44
2016-08-03T08:14:02.632Z,20.47
2016-08-03T08:15:02.648Z,20.41
2016-08-03T08:16:02.669Z,20.34
2016-08-03T08:17:02.694Z,20.4
2016-08-03T08:18:02.722Z,20.39
2016-08-03T08:19:02.731Z,20.32
2016-08-03T08:20:02.764Z,20.37
2016-08-03T08:21:02.772Z,20.44
2016-08-03T08:22:02.812Z,20.37
2016-08-03T08:23:02.813Z,20.39
2016-08-03T08:24:02.843Z,20.51
2016-08-03T08:25:02.852Z,20.39
2016-08-03T08:26:02.880Z,20.44
2016-08-03T08:27:02.905Z,20.55
2016-08-03T08:28:02.926Z,20.59
2016-08-03T08:29:02.942Z,20.55
2016-08-03T08:30:02.967Z,20.58
2016-08-03T08:31:02.985Z,20.52
2016-08-03T08:32:03.012Z,20.65
2016-08-03T08:33:03.025Z,20.69
2016-08-03T08:34:03.039Z,20.72
2016-08-03T08:35:03.061Z,20.67
2016-08-03T08:36:03.108Z,20.75
2016-08-03T08:37:03.113Z,20.84
2016-08-03T08:38:03.125Z,20.9
2016-08-03T08:39:03.147Z,20.88
2016-08-03T08:40:03.175Z,21.05
2016-08-03T08:41:03.188Z,21.06
2016-08-03T08:42:03.217Z,21.07
2016-08-03T08:43:03.223Z,21.15
2016-08-03T08:44:03.256Z,21.27
2016-08-03T08:45:03.277Z,21.3
2016-08-03T08:46:03.298Z,21.27
2016-08-03T08:47:03.309Z,21.48
2016-08-03T08:48:03.339Z,21.46
2016-08-03T08:49:03.353Z,21.64
2016-08-03T08:50:03.389Z,21.66
2016-08-03T08:51:03.409Z,21.66
2016-08-03T08:52:03.473Z,21.67
2016-08-03T08:53:03.447Z,21.66
2016-08-03T08:54:03.480Z,21.67
2016-08-03T08:55:03.486Z,21.72
2016-08-03T08:56:03.508Z,21.75
2016-08-03T08:57:03.542Z,21.75
2016-08-03T08:58:03.564Z,21.91
2016-08-03T08:59:03.584Z,21.98
2016-08-03T09:00:03.594Z,22.13
2016-08-03T09:01:03.636Z,22.17
2016-08-03T09:02:03.643Z,22.25
2016-08-03T09:03:03.659Z,22.32
2016-08-03T09:04:03.680Z,22.32
2016-08-03T09:05:03.701Z,22.35
2016-08-03T09:06:03.737Z,22.32
2016-08-03T09:07:03.747Z,22.22
2016-08-03T09:08:03.774Z,22.25
2016-08-03T09:09:03.790Z,22.33
2016-08-03T09:10:03.814Z,22.3
2016-08-03T09:11:03.827Z,22.33
2016-08-03T09:12:03.864Z,22.41
2016-08-03T09:13:03.870Z,22.43
2016-08-03T09:14:03.895Z,22.6
2016-08-03T09:15:03.920Z,22.69
2016-08-03T09:17:03.962Z,22.87
2016-08-03T09:18:03.993Z,22.96
2016-08-03T09:19:03.999Z,23.06
2016-08-03T09:20:04.021Z,23.05
2016-08-03T09:21:04.047Z,23.08
2016-08-03T09:22:04.072Z,23.08
2016-08-03T09:23:04.097Z,23.1
2016-08-03T09:24:04.118Z,23.2
2016-08-03T09:25:04.138Z,23.21
2016-08-03T09:26:04.163Z,23.28
2016-08-03T09:27:04.183Z,23.18
2016-08-03T09:28:04.210Z,23.1
2016-08-03T09:29:04.230Z,23.21
2016-08-03T09:30:04.252Z,23
2016-08-03T09:32:04.298Z,22.78
2016-08-03T09:33:04.319Z,22.83
2016-08-03T09:34:04.339Z,22.63
2016-08-03T09:35:04.356Z,22.59
2016-08-03T09:36:04.389Z,22.63
2016-08-03T09:37:04.406Z,22.6
2016-08-03T09:38:04.430Z,22.63
2016-08-03T09:39:04.458Z,22.59
2016-08-03T09:40:04.465Z,22.78
2016-08-03T09:41:04.493Z,22.69
2016-08-03T09:42:04.517Z,22.88
2016-08-03T09:43:04.552Z,22.87
2016-08-03T09:44:04.557Z,22.87
2016-08-03T09:45:04.577Z,22.84
2016-08-03T09:47:04.620Z,22.73
2016-08-03T09:48:04.645Z,22.73
2016-08-03T09:49:04.660Z,22.6
2016-08-03T09:50:04.691Z,22.43
2016-08-03T09:51:04.708Z,22.35
2016-08-03T09:52:04.769Z,22.26
2016-08-03T09:53:04.762Z,22.18
2016-08-03T09:54:04.788Z,22.1
2016-08-03T09:55:04.805Z,22.07
2016-08-03T09:56:04.826Z,22.07
2016-08-03T09:57:04.842Z,22
2016-08-03T09:58:04.904Z,22.02
2016-08-03T09:59:04.889Z,21.98
2016-08-03T10:00:04.905Z,21.92
2016-08-03T10:02:04.960Z,21.88
2016-08-03T10:03:04.965Z,21.83
2016-08-03T10:04:05.003Z,21.77
2016-08-03T10:05:05.022Z,21.79
2016-08-03T10:06:05.031Z,21.76
2016-08-03T10:07:05.056Z,21.72
2016-08-03T10:08:05.084Z,21.69
2016-08-03T10:09:05.132Z,21.72
2016-08-03T10:10:05.165Z,21.76
2016-08-03T10:11:05.139Z,21.82
2016-08-03T10:12:05.236Z,21.85
2016-08-03T10:13:05.188Z,21.82
2016-08-03T10:14:05.208Z,21.79
2016-08-03T10:15:05.223Z,21.85
2016-08-03T10:16:05.258Z,21.82
2016-08-03T10:17:05.272Z,21.93
2016-08-03T10:18:05.304Z,22.02
2016-08-03T10:19:05.311Z,22.04
2016-08-03T10:20:05.351Z,22.1
2016-08-03T10:21:05.364Z,22.17
2016-08-03T10:22:05.376Z,22.23
2016-08-03T10:23:05.403Z,22.36
2016-08-03T10:24:05.427Z,22.35
2016-08-03T10:25:05.440Z,22.36
2016-08-03T10:26:05.468Z,22.43
2016-08-03T10:27:05.486Z,22.33
2016-08-03T10:28:05.510Z,22.45
2016-08-03T10:29:05.532Z,22.54
2016-08-03T10:30:05.553Z,22.54
2016-08-03T10:31:05.572Z,22.51
2016-08-03T10:32:05.602Z,22.59
2016-08-03T10:33:05.618Z,22.5
2016-08-03T10:34:05.642Z,22.38
2016-08-03T10:35:05.664Z,22.36
2016-08-03T10:36:05.684Z,22.22
2016-08-03T10:37:05.712Z,22.29
2016-08-03T10:38:05.730Z,22.23
2016-08-03T10:39:05.747Z,22.29
2016-08-03T10:40:05.771Z,22.28
2016-08-03T10:41:05.796Z,22.33
2016-08-03T10:42:05.812Z,22.36
2016-08-03T10:43:05.835Z,22.39
2016-08-03T10:44:05.856Z,22.39
2016-08-03T10:45:05.891Z,22.36
2016-08-03T10:46:05.910Z,22.47
2016-08-03T10:47:05.922Z,22.45
2016-08-03T10:48:05.946Z,22.44
2016-08-03T10:49:05.974Z,22.44
2016-08-03T10:50:05.990Z,22.41
2016-08-03T10:51:06.015Z,22.39
2016-08-03T10:52:06.045Z,22.38
2016-08-03T10:53:06.059Z,22.36
2016-08-03T10:54:06.081Z,22.35
2016-08-03T10:55:06.104Z,22.28
2016-08-03T10:56:06.121Z,22.3
2016-08-03T10:57:06.146Z,22.23
2016-08-03T10:58:06.161Z,22.26
2016-08-03T10:59:06.176Z,22.2
2016-08-03T11:00:06.236Z,22.15
2016-08-03T11:01:06.225Z,22.15
2016-08-03T11:02:06.251Z,22.17
2016-08-03T11:03:06.265Z,22.3
2016-08-03T11:04:06.307Z,22.23
2016-08-03T11:05:06.310Z,22.18
2016-08-03T11:06:06.341Z,22.2
2016-08-03T11:07:06.352Z,22.18
2016-08-03T11:08:06.387Z,22.18
2016-08-03T11:09:06.404Z,22.23
2016-08-03T11:10:06.432Z,22.36
2016-08-03T11:11:06.443Z,22.33
2016-08-03T11:12:06.460Z,22.26
2016-08-03T11:13:06.493Z,22.41
2016-08-03T11:14:06.518Z,22.38
2016-08-03T11:15:06.553Z,22.36
2016-08-03T11:16:06.554Z,22.3
2016-08-03T11:17:06.572Z,22.33
2016-08-03T11:18:06.611Z,22.32
2016-08-03T11:19:06.613Z,22.25
2016-08-03T11:20:06.644Z,22.35
2016-08-03T11:21:06.658Z,22.29
2016-08-03T11:22:06.683Z,22.25
2016-08-03T11:23:06.701Z,22.28
2016-08-03T11:24:06.740Z,22.29
2016-08-03T11:25:06.745Z,22.29
2016-08-03T11:26:06.782Z,22.28
2016-08-03T11:27:06.791Z,22.23
2016-08-03T11:28:06.814Z,22.22
2016-08-03T11:29:06.833Z,22.08
2016-08-03T11:30:06.858Z,22.22
2016-08-03T11:31:06.876Z,22.08
2016-08-03T11:32:06.898Z,22.14
2016-08-03T11:33:07.652Z,22.23
2016-08-03T11:34:06.986Z,22.11
2016-08-03T11:35:06.959Z,22.15
2016-08-03T11:36:06.987Z,22.13
2016-08-03T11:37:07.000Z,22.2
2016-08-03T11:38:07.032Z,22.38
2016-08-03T11:39:07.047Z,22.3
2016-08-03T11:40:07.078Z,22.39
2016-08-03T11:41:07.093Z,22.32
2016-08-03T11:42:07.120Z,22.38
2016-08-03T11:43:07.137Z,22.36
2016-08-03T11:44:07.151Z,22.43
2016-08-03T11:45:07.186Z,22.43
2016-08-03T11:46:07.188Z,22.32
2016-08-03T11:47:07.216Z,22.3
2016-08-03T11:48:07.250Z,22.35
2016-08-03T11:49:07.269Z,22.26
2016-08-03T11:50:07.299Z,22.26
2016-08-03T11:51:07.304Z,22.32
2016-08-03T11:52:07.341Z,22.23
2016-08-03T11:53:07.346Z,22.23
2016-08-03T11:54:08.102Z,22.22
2016-08-03T11:55:07.388Z,22.13
2016-08-03T11:56:07.425Z,22.02
2016-08-03T11:57:07.437Z,22.11
2016-08-03T11:58:07.464Z,21.96
2016-08-03T11:59:07.472Z,22.07
2016-08-03T12:00:07.502Z,22.06
2016-08-03T12:01:07.524Z,21.93
2016-08-03T12:02:07.547Z,21.96
2016-08-03T12:03:07.567Z,22.02
2016-08-03T12:04:07.588Z,22.02
2016-08-03T12:05:07.610Z,21.93
2016-08-03T12:06:07.631Z,21.91
2016-08-03T12:07:07.646Z,21.82
2016-08-03T12:08:07.676Z,21.8
2016-08-03T12:09:07.691Z,21.77
2016-08-03T12:10:07.724Z,21.83
2016-08-03T12:11:07.732Z,21.82
2016-08-03T12:12:08.477Z,21.77
2016-08-03T12:13:07.786Z,21.77
2016-08-03T12:14:07.804Z,21.8
2016-08-03T12:15:07.821Z,21.79
2016-08-03T12:16:07.844Z,21.76
2016-08-03T12:17:07.872Z,21.73
2016-08-03T12:18:07.887Z,21.72
2016-08-03T12:19:07.908Z,21.67
2016-08-03T12:20:07.930Z,21.66
2016-08-03T12:21:07.950Z,21.6
2016-08-03T12:22:07.980Z,21.57
2016-08-03T12:23:07.994Z,21.54
2016-08-03T12:24:08.018Z,21.52
2016-08-03T12:25:08.031Z,21.46
2016-08-03T12:26:08.067Z,21.36
2016-08-03T12:27:08.088Z,21.3
2016-08-03T12:28:08.101Z,21.17
2016-08-03T12:29:08.126Z,21.18
2016-08-03T12:30:08.139Z,21.11
2016-08-03T12:31:08.172Z,21.17
2016-08-03T12:32:08.185Z,21.12
2016-08-03T12:33:08.216Z,21.11
2016-08-03T12:34:08.222Z,21.15
2016-08-03T12:35:08.249Z,21.12
2016-08-03T12:36:08.273Z,21.15
2016-08-03T12:37:08.295Z,21.21
2016-08-03T12:38:08.320Z,21.22
2016-08-03T12:39:08.333Z,21.29
2016-08-03T12:40:08.354Z,21.27
2016-08-03T12:41:08.376Z,21.43
2016-08-03T12:42:08.403Z,21.46
2016-08-03T12:43:08.414Z,21.43
2016-08-03T12:44:08.452Z,21.5
2016-08-03T12:45:08.464Z,21.58
2016-08-03T12:46:08.487Z,21.55
2016-08-03T12:47:08.502Z,21.61
2016-08-03T12:48:08.521Z,21.64
2016-08-03T12:49:08.551Z,21.62
2016-08-03T12:50:08.568Z,21.67
2016-08-03T12:51:08.595Z,21.76
2016-08-03T12:52:08.606Z,21.72
2016-08-03T12:53:08.635Z,21.67
2016-08-03T12:54:08.655Z,21.64
2016-08-03T12:55:08.692Z,21.7
2016-08-03T12:56:08.702Z,21.62
2016-08-03T12:57:08.717Z,21.55
2016-08-03T12:58:08.743Z,21.55
2016-08-03T12:59:08.760Z,21.54
2016-08-03T13:00:08.796Z,21.46
2016-08-03T13:01:08.808Z,21.48
2016-08-03T13:02:08.831Z,21.45
2016-08-03T13:03:08.848Z,21.57
2016-08-03T13:04:08.884Z,21.61
2016-08-03T13:05:08.888Z,21.69